createdAt,value
2022-11-08T03:11:26.414Z,7.90
2022-11-08T03:13:55.816Z,9.27
2022-11-08T03:16:34.436Z,8.20
2022-11-08T03:19:26.258Z,8.23
2022-11-08T03:22:18.564Z,7.73
2022-11-08T03:24:45.268Z,7.80
2022-11-08T03:27:13.979Z,8.07
2022-11-08T03:29:41.383Z,7.20
2022-11-08T03:32:08.073Z,7.10
2022-11-08T03:34:51.800Z,7.30
2022-11-08T03:50:46.948Z,6.87
2022-11-08T03:53:13.524Z,8.50
2022-11-08T03:55:41.292Z,10.83
2022-11-08T03:58:07.929Z,12.03
2022-11-08T04:00:34.474Z,12.40
2022-11-08T04:03:03.035Z,11.23
2022-11-08T04:05:32.299Z,10.90
2022-11-08T04:08:00.644Z,11.30
2022-11-08T04:10:27.439Z,11.87
2022-11-08T04:13:12.372Z,12.90
2022-11-08T04:15:39.078Z,11.63
2022-11-08T04:18:24.358Z,11.03
2022-11-08T05:01:40.087Z,13.90
2022-11-08T05:04:06.886Z,14.40
2022-11-08T05:06:33.510Z,13.93
2022-11-08T05:09:00.242Z,13.60
2022-11-08T05:11:28.753Z,13.13
2022-11-08T05:13:55.678Z,14.17
2022-11-08T05:16:25.293Z,13.90
2022-11-08T05:18:52.611Z,13.53
2022-11-08T05:21:39.590Z,11.67
2022-11-08T05:24:09.157Z,12.30
2022-11-08T05:26:39.638Z,17.57
2022-11-08T05:29:06.314Z,13.00
2022-11-08T05:31:32.959Z,13.27
2022-11-08T05:34:02.366Z,14.00
2022-11-08T05:42:42.583Z,14.57
2022-11-08T06:16:22.912Z,14.80
2022-11-08T06:18:49.656Z,15.10
2022-11-08T06:21:18.448Z,14.60
2022-11-08T06:23:45.316Z,14.33
2022-11-08T06:26:12.266Z,14.43
2022-11-08T06:28:38.857Z,15.37
2022-11-08T06:31:05.726Z,15.50
2022-11-08T06:33:32.622Z,15.40
2022-11-08T06:35:59.297Z,15.70
2022-11-08T06:38:26.038Z,14.70
2022-11-08T06:40:52.633Z,16.57
2022-11-08T06:43:20.284Z,15.73
2022-11-08T06:45:47.350Z,15.33
2022-11-08T06:48:14.026Z,15.97
2022-11-08T06:50:42.013Z,15.03
2022-11-08T06:53:10.778Z,15.90
2022-11-08T06:55:37.319Z,16.40
2022-11-08T06:58:04.276Z,15.73
2022-11-08T07:00:31.162Z,16.40
2022-11-08T07:02:59.683Z,23.10
2022-11-08T07:05:27.312Z,21.27
2022-11-08T07:07:54.255Z,16.77
2022-11-08T07:10:25.865Z,15.97
2022-11-08T07:13:21.526Z,14.07
2022-11-08T07:15:48.505Z,12.67
2022-11-08T08:01:03.130Z,11.73
2022-11-08T08:04:01.923Z,11.80
2022-11-08T08:06:32.156Z,12.37
2022-11-08T08:08:58.776Z,12.73
2022-11-08T08:11:29.455Z,12.80
2022-11-08T08:13:59.298Z,12.50
2022-11-08T08:16:25.853Z,12.23
2022-11-08T08:18:56.297Z,11.87
2022-11-08T08:21:23.694Z,12.00
2022-11-08T08:23:50.292Z,12.07
2022-11-08T08:26:16.933Z,11.67
2022-11-08T08:28:43.511Z,11.83
2022-11-08T08:31:10.142Z,11.80
2022-11-08T08:33:37.890Z,12.47
2022-11-08T08:36:05.392Z,12.30
2022-11-08T08:38:33.075Z,12.60
2022-11-08T08:41:00.288Z,12.40
2022-11-08T08:43:32.544Z,11.40
2022-11-08T08:46:00.938Z,13.50
2022-11-08T08:48:48.917Z,12.67
2022-11-08T08:51:26.605Z,13.73
2022-11-08T08:54:04.734Z,12.93
2022-11-08T08:56:37.594Z,20.23
2022-11-08T09:02:00.972Z,14.47
2022-11-08T09:04:34.903Z,14.03
2022-11-08T09:07:04.497Z,13.57
2022-11-08T09:09:35.900Z,14.23
2022-11-08T09:12:10.194Z,13.80
2022-11-08T09:14:46.889Z,13.97
2022-11-08T09:17:17.819Z,13.77
2022-11-08T09:23:06.074Z,13.40
2022-11-08T12:47:40.871Z,16.43
2022-11-08T12:50:27.936Z,16.63
2022-11-08T12:53:13.946Z,16.90
2022-11-08T12:55:42.119Z,16.63
2022-11-08T12:58:22.323Z,16.40
2022-11-08T13:00:52.487Z,17.90
2022-11-08T13:03:28.356Z,16.50
2022-11-08T13:06:24.633Z,16.47
2022-11-08T13:09:13.282Z,17.30
2022-11-08T13:12:13.515Z,16.23
2022-11-08T13:14:41.533Z,17.00
2022-11-08T13:17:18.663Z,16.27
2022-11-08T13:19:52.918Z,17.73
2022-11-08T13:22:29.483Z,17.03
2022-11-08T13:25:00.844Z,18.17
2022-11-08T13:27:32.385Z,17.27
2022-11-08T13:30:04.114Z,17.40
2022-11-08T13:32:42.973Z,17.47
2022-11-08T13:35:39.312Z,17.87
2022-11-08T13:38:12.095Z,18.57
2022-11-08T13:40:49.932Z,17.87
2022-11-08T13:43:23.849Z,16.97
2022-11-08T13:45:51.413Z,18.00
2022-11-08T13:48:28.868Z,17.97
2022-11-08T13:51:22.599Z,18.10
2022-11-08T13:53:54.516Z,19.07
2022-11-08T13:56:45.845Z,18.83
2022-11-08T13:59:33.255Z,19.07
2022-11-08T14:02:11.079Z,19.53
2022-11-08T14:04:41.503Z,19.33
2022-11-08T14:07:22.171Z,19.30
2022-11-08T14:10:15.034Z,18.97
2022-11-08T14:13:26.943Z,22.63
2022-11-08T14:15:59.579Z,26.40
2022-11-08T14:18:30.451Z,23.07
2022-11-08T14:20:57.582Z,19.23
2022-11-08T14:23:34.190Z,18.53
2022-11-08T14:26:10.286Z,19.37
2022-11-08T14:28:42.542Z,17.53
2022-11-08T14:31:29.283Z,17.17
2022-11-08T14:33:59.812Z,17.40
2022-11-08T14:36:29.069Z,18.00
2022-11-08T14:39:17.358Z,18.67
2022-11-08T14:41:48.749Z,17.93
2022-11-08T14:44:16.910Z,19.07
2022-11-08T14:46:43.839Z,19.07
2022-11-08T14:49:13.858Z,18.97
2022-11-08T14:51:41.287Z,18.87
2022-11-08T14:54:23.405Z,18.80
2022-11-08T14:56:50.555Z,19.23
2022-11-08T14:59:17.915Z,18.37
2022-11-08T15:01:48.045Z,19.73
2022-11-08T15:04:20.471Z,19.63
2022-11-08T15:06:50.539Z,20.13
2022-11-08T15:09:31.694Z,20.93
2022-11-08T15:12:07.521Z,21.17
2022-11-08T15:14:36.990Z,20.93
2022-11-08T15:17:05.544Z,19.77
2022-11-08T15:19:36.239Z,19.43
2022-11-08T15:22:28.151Z,22.70
2022-11-08T15:25:17.800Z,25.87
2022-11-08T15:27:52.591Z,27.40
2022-11-08T15:30:54.705Z,24.17
2022-11-08T15:33:23.736Z,20.93
2022-11-08T15:35:52.193Z,20.03
2022-11-08T15:38:39.415Z,20.83
2022-11-08T15:41:45.132Z,20.90
2022-11-08T15:44:23.428Z,19.40
2022-11-08T15:46:52.032Z,20.23
2022-11-08T15:49:22.906Z,20.73
2022-11-08T15:51:51.544Z,21.20
2022-11-08T15:54:19.506Z,21.50
2022-11-08T15:56:47.011Z,22.27
2022-11-08T15:59:38.955Z,21.90
2022-11-08T16:02:13.211Z,21.97
2022-11-08T16:04:40.965Z,23.13
2022-11-08T16:07:08.202Z,31.37
2022-11-08T16:09:35.002Z,26.27
2022-11-08T16:12:03.100Z,25.97
2022-11-08T16:14:31.836Z,23.80
2022-11-08T16:16:59.572Z,24.83
2022-11-08T16:19:26.906Z,22.40
2022-11-08T16:21:53.799Z,23.57
2022-11-08T16:24:21.770Z,24.33
2022-11-08T16:26:48.827Z,24.13
2022-11-08T16:29:20.535Z,24.60
2022-11-08T16:31:49.808Z,23.17
2022-11-08T16:34:17.131Z,24.10
2022-11-08T16:36:46.355Z,24.13
2022-11-08T16:39:18.935Z,23.53
2022-11-08T16:41:47.658Z,24.00
2022-11-08T16:44:19.115Z,23.63
2022-11-08T16:46:46.086Z,23.30
2022-11-08T16:49:22.595Z,23.07
2022-11-08T16:51:50.251Z,23.80
2022-11-08T16:54:19.837Z,23.43
2022-11-08T16:56:46.819Z,24.10
2022-11-08T16:59:14.971Z,23.77
2022-11-08T17:01:43.304Z,22.80
2022-11-08T17:04:10.550Z,23.67
2022-11-08T17:06:38.363Z,25.10
2022-11-08T17:09:05.432Z,23.90
2022-11-08T17:11:32.165Z,24.80
2022-11-08T17:14:00.555Z,23.50
2022-11-08T17:16:27.734Z,24.90
2022-11-08T17:18:56.610Z,24.63
2022-11-08T17:24:15.738Z,24.93
2022-11-08T17:26:46.703Z,22.23
2022-11-08T17:29:13.462Z,23.90
2022-11-08T17:31:40.248Z,22.97
2022-11-08T17:34:07.620Z,23.17
2022-11-08T17:36:34.598Z,24.37
2022-11-08T17:39:04.243Z,24.23
2022-11-08T17:41:35.242Z,25.00
2022-11-08T17:44:02.663Z,24.83
2022-11-08T17:46:29.413Z,25.30
2022-11-08T17:48:56.457Z,23.87
2022-11-08T17:51:23.553Z,23.63
2022-11-08T17:53:50.343Z,25.00
2022-11-08T17:56:17.090Z,26.73
2022-11-08T17:58:43.819Z,25.77
2022-11-08T18:01:10.786Z,25.73
2022-11-08T18:03:37.574Z,31.30
2022-11-08T18:06:06.756Z,26.10
2022-11-08T18:08:34.662Z,25.83
2022-11-08T18:11:02.343Z,24.33
2022-11-08T18:13:29.491Z,24.57
2022-11-08T18:16:11.406Z,23.30
2022-11-08T18:18:38.446Z,22.77
2022-11-08T18:21:08.459Z,22.13
2022-11-08T18:23:52.547Z,22.13
2022-11-08T18:26:48.602Z,22.90
2022-11-08T18:29:32.807Z,21.87
2022-11-08T22:23:31.410Z,25.93
2022-11-08T22:26:02.359Z,25.73
2022-11-08T22:28:29.978Z,26.20
2022-11-08T22:30:56.547Z,27.73
2022-11-08T22:33:25.358Z,27.27
2022-11-08T22:35:52.756Z,27.10
2022-11-08T22:38:20.897Z,25.73
2022-11-08T22:40:57.587Z,27.87
2022-11-08T22:43:24.750Z,26.57
2022-11-08T22:45:51.587Z,26.00
2022-11-08T22:48:18.638Z,26.60
2022-11-08T22:50:46.173Z,26.90
2022-11-08T22:53:12.882Z,26.37
2022-11-08T22:55:39.740Z,26.27
2022-11-08T22:58:06.437Z,27.20
2022-11-08T23:00:33.314Z,27.20
2022-11-08T23:03:00.092Z,26.97
2022-11-08T23:05:26.939Z,26.70
2022-11-08T23:07:54.175Z,26.07
2022-11-08T23:10:20.993Z,26.57
2022-11-08T23:13:06.379Z,25.40
2022-11-08T23:15:34.281Z,26.30
2022-11-08T23:18:02.219Z,27.33
2022-11-08T23:20:52.717Z,26.90
2022-11-08T23:23:40.474Z,25.30
2022-11-08T23:26:10.349Z,25.43
2022-11-08T23:28:56.801Z,25.73
2022-11-08T23:31:38.584Z,25.47
2022-11-08T23:34:21.366Z,23.93
2022-11-08T23:36:53.539Z,23.57
2022-11-08T23:39:28.622Z,23.80
2022-11-08T23:42:22.317Z,24.60
2022-11-08T23:45:23.437Z,24.40
2022-11-08T23:48:04.055Z,23.50
2022-11-08T23:50:32.591Z,22.40
2022-11-08T23:52:59.871Z,24.43
2022-11-08T23:55:26.547Z,22.63
2022-11-08T23:57:54.596Z,23.37
